Copper Creek, Canada
Current Conditions -  °F | °C
As of 4:00 AM on Monday 26 Jan 2015 (Local Time) from CYKA Reporting Station
Overcast Overcast  
Wind Chill: 36°   Ceiling: 1000
Heat Index: 36°   Visibility: 40mi
Dew Point: 34°   Wind: 2mph
Humidity: 93%   Direction: NA
Pressure: 30.08"   Gusts: NA
Location:  50.8°N, 120.76°W
Report Text: CYKA 261200Z VRB02KT 40SM OVC010 02/01 A3008 RMK SC8 SLP199
Loading
Personal Weather Stations






























Interactive Weather Map New forecast layout! Learn more

10-Day Weather Forecast

Advertisements
Track Severe Weather on mobile